createdAt,value
2019-05-18T00:00:10.361Z,13.74
2019-05-18T00:02:38.980Z,14.02
2019-05-18T00:05:08.096Z,13.72
2019-05-18T00:07:36.827Z,14.11
2019-05-18T00:10:07.024Z,14.21
2019-05-18T00:12:35.731Z,12.89
2019-05-18T00:15:06.660Z,13.56
2019-05-18T00:17:35.358Z,13.44
2019-05-18T00:20:07.638Z,13.91
2019-05-18T00:22:36.364Z,14.12
2019-05-18T00:25:06.623Z,14.08
2019-05-18T00:27:35.247Z,13.97
2019-05-18T00:30:08.123Z,14.05
2019-05-18T00:32:36.833Z,14.30
2019-05-18T00:35:07.236Z,14.17
2019-05-18T00:37:36.015Z,14.01
2019-05-18T00:40:06.677Z,13.99
2019-05-18T00:42:35.299Z,14.12
2019-05-18T00:45:05.535Z,14.36
2019-05-18T00:47:41.345Z,14.32
2019-05-18T00:50:05.445Z,14.04
2019-05-18T00:52:34.190Z,13.99
2019-05-18T00:55:02.885Z,14.20
2019-05-18T00:57:31.581Z,14.43
2019-05-18T01:00:00.329Z,14.44
2019-05-18T01:02:29.026Z,14.28
2019-05-18T01:04:57.718Z,14.35
2019-05-18T01:07:26.458Z,14.21
2019-05-18T01:09:55.151Z,14.30
2019-05-18T01:12:23.841Z,14.27
2019-05-18T01:14:52.572Z,14.25
2019-05-18T01:17:21.200Z,14.11
2019-05-18T01:19:49.904Z,13.84
2019-05-18T01:22:18.627Z,13.89
2019-05-18T01:24:47.335Z,14.03
2019-05-18T01:27:16.057Z,14.02
2019-05-18T01:29:44.797Z,14.09
2019-05-18T01:32:13.414Z,13.80
2019-05-18T01:34:42.113Z,13.53
2019-05-18T01:37:10.845Z,13.49
2019-05-18T01:39:39.546Z,13.55
2019-05-18T01:42:08.250Z,13.69
2019-05-18T01:44:36.977Z,13.68
2019-05-18T01:47:05.670Z,13.66
2019-05-18T01:49:34.375Z,13.76
2019-05-18T01:52:03.144Z,13.98
2019-05-18T01:54:31.818Z,13.48
2019-05-18T01:57:00.632Z,13.67
2019-05-18T01:59:29.419Z,13.91
2019-05-18T02:01:58.119Z,13.80
2019-05-18T02:04:26.818Z,13.75
2019-05-18T02:06:55.535Z,13.59
2019-05-18T02:09:24.235Z,13.64
2019-05-18T02:11:52.946Z,13.57
2019-05-18T02:14:21.672Z,13.14
2019-05-18T02:16:50.369Z,13.07
2019-05-18T02:19:19.072Z,13.67
2019-05-18T02:21:47.806Z,12.92
2019-05-18T02:24:16.501Z,12.83
2019-05-18T02:26:45.204Z,12.70
2019-05-18T02:29:13.936Z,12.80
2019-05-18T02:31:42.635Z,12.53
2019-05-18T02:34:11.337Z,13.09
2019-05-18T02:36:40.108Z,12.74
2019-05-18T02:39:09.608Z,12.99
2019-05-18T02:41:38.311Z,12.69
2019-05-18T02:44:07.242Z,12.57
2019-05-18T02:46:35.932Z,12.68
2019-05-18T02:49:04.630Z,12.55
2019-05-18T02:51:34.386Z,12.97
2019-05-18T02:54:03.078Z,13.36
2019-05-18T02:56:33.849Z,13.39
2019-05-18T02:59:02.591Z,13.25
2019-05-18T03:01:31.285Z,12.58
2019-05-18T03:03:59.908Z,12.41
2019-05-18T03:06:28.663Z,12.30
2019-05-18T03:08:57.378Z,12.82
2019-05-18T03:11:26.003Z,12.63
2019-05-18T03:13:54.656Z,12.80
2019-05-18T03:16:23.360Z,12.92
2019-05-18T03:19:06.779Z,12.91
2019-05-18T03:21:22.520Z,12.78
2019-05-18T03:23:51.138Z,11.11
2019-05-18T03:26:19.838Z,12.06
2019-05-18T03:28:48.572Z,12.23
2019-05-18T03:31:17.272Z,12.46
2019-05-18T03:33:46.076Z,11.87
2019-05-18T03:36:14.804Z,12.05
2019-05-18T03:38:43.495Z,11.83
2019-05-18T03:41:12.195Z,12.15
2019-05-18T03:43:40.936Z,12.56
2019-05-18T03:46:09.636Z,12.08
2019-05-18T03:48:38.337Z,11.99
2019-05-18T03:51:07.390Z,11.98
2019-05-18T03:53:36.047Z,11.69
2019-05-18T03:56:04.726Z,12.54
2019-05-18T03:58:33.469Z,12.35
2019-05-18T04:01:02.376Z,12.37
2019-05-18T04:03:31.056Z,11.23
2019-05-18T04:05:59.782Z,11.68
2019-05-18T04:08:28.485Z,12.01
2019-05-18T04:10:57.182Z,12.36
2019-05-18T04:13:25.876Z,11.80
2019-05-18T04:15:54.569Z,12.12
2019-05-18T04:18:23.268Z,11.70
2019-05-18T04:20:51.947Z,12.17
2019-05-18T04:23:20.649Z,12.04
2019-05-18T04:25:49.358Z,12.17
2019-05-18T04:28:18.188Z,12.44
2019-05-18T04:30:46.795Z,12.25
2019-05-18T04:33:15.499Z,12.44
2019-05-18T04:35:44.252Z,12.44
2019-05-18T04:38:12.950Z,12.34
2019-05-18T04:40:41.641Z,12.91
2019-05-18T04:43:10.383Z,11.95
2019-05-18T04:45:39.090Z,12.75
2019-05-18T04:48:07.783Z,12.54
2019-05-18T04:50:37.614Z,12.06
2019-05-18T04:53:06.308Z,11.60
2019-05-18T04:55:35.527Z,12.16
2019-05-18T04:58:04.274Z,12.70
2019-05-18T05:00:32.971Z,12.74
2019-05-18T05:03:01.670Z,12.89
2019-05-18T05:05:30.428Z,12.89
2019-05-18T05:07:59.066Z,12.30
2019-05-18T05:10:27.766Z,12.72
2019-05-18T05:12:57.336Z,13.21
2019-05-18T05:15:25.976Z,12.98
2019-05-18T05:17:54.683Z,12.56
2019-05-18T05:20:23.428Z,13.10
2019-05-18T05:22:52.052Z,13.63
2019-05-18T05:25:20.745Z,13.86
2019-05-18T05:27:49.485Z,14.06
2019-05-18T05:30:18.383Z,13.50
2019-05-18T05:32:47.091Z,14.02
2019-05-18T05:35:15.827Z,14.32
2019-05-18T05:37:44.544Z,14.15
2019-05-18T05:40:13.257Z,14.31
2019-05-18T05:42:41.972Z,14.15
2019-05-18T05:45:11.073Z,14.58
2019-05-18T05:47:39.779Z,14.98
2019-05-18T05:50:09.104Z,14.44
2019-05-18T05:52:37.741Z,14.64
2019-05-18T05:55:08.550Z,13.72
2019-05-18T05:57:37.290Z,13.84
2019-05-18T06:00:06.588Z,13.83
2019-05-18T06:02:35.293Z,13.51
2019-05-18T06:05:05.044Z,13.88
2019-05-18T06:07:34.153Z,13.53
2019-05-18T06:10:02.775Z,13.88
2019-05-18T06:12:31.510Z,14.00
2019-05-18T06:15:01.060Z,14.48
2019-05-18T06:17:29.703Z,14.05
2019-05-18T06:19:58.438Z,14.05
2019-05-18T06:22:27.083Z,14.68
2019-05-18T06:24:55.803Z,14.25
2019-05-18T06:27:24.544Z,14.29
2019-05-18T06:29:53.253Z,14.10
2019-05-18T06:32:21.968Z,14.21
2019-05-18T06:34:50.696Z,14.80
2019-05-18T06:37:19.342Z,15.73
2019-05-18T06:39:48.036Z,15.01
2019-05-18T06:42:16.792Z,15.59
2019-05-18T06:44:45.491Z,14.89
2019-05-18T06:47:14.203Z,14.90
2019-05-18T06:49:42.881Z,14.62
2019-05-18T06:52:11.584Z,15.07
2019-05-18T06:54:40.280Z,15.40
2019-05-18T06:57:09.927Z,15.19
2019-05-18T06:59:38.928Z,15.54
2019-05-18T07:02:07.643Z,16.13
2019-05-18T07:04:36.377Z,15.91
2019-05-18T07:07:05.088Z,16.13
2019-05-18T07:09:33.789Z,16.57
2019-05-18T07:12:02.588Z,16.68
2019-05-18T07:14:31.319Z,16.37
2019-05-18T07:17:00.891Z,16.21
2019-05-18T07:19:29.625Z,15.96
2019-05-18T07:21:58.332Z,16.92
2019-05-18T07:24:27.039Z,17.13
2019-05-18T07:26:56.649Z,16.83
2019-05-18T07:29:25.355Z,16.65
2019-05-18T07:31:54.065Z,16.89
2019-05-18T07:34:26.435Z,16.84
2019-05-18T07:36:53.233Z,16.31
2019-05-18T07:39:21.872Z,16.79
2019-05-18T07:41:50.611Z,16.87
2019-05-18T07:44:19.326Z,17.14
2019-05-18T07:46:48.036Z,16.93
2019-05-18T07:49:16.798Z,17.28
2019-05-18T07:51:45.510Z,16.40
2019-05-18T07:54:14.218Z,17.23
2019-05-18T07:56:42.956Z,16.90
2019-05-18T07:59:11.666Z,16.83
2019-05-18T08:01:40.374Z,16.73
2019-05-18T08:04:09.117Z,16.80
2019-05-18T08:06:37.766Z,17.44
2019-05-18T08:09:08.178Z,18.05
2019-05-18T08:11:36.972Z,17.14
2019-05-18T08:14:05.782Z,17.86
2019-05-18T08:16:34.486Z,17.77
2019-05-18T08:19:04.067Z,17.58
2019-05-18T08:21:32.775Z,17.93
2019-05-18T08:24:01.481Z,18.36
2019-05-18T08:26:30.242Z,17.84
2019-05-18T08:28:58.929Z,17.69
2019-05-18T08:31:27.639Z,17.24
2019-05-18T08:33:56.381Z,18.09
2019-05-18T08:36:25.085Z,18.33
2019-05-18T08:38:53.799Z,18.37
2019-05-18T08:41:22.548Z,17.32
2019-05-18T08:43:51.244Z,17.76
2019-05-18T08:46:19.943Z,17.81
2019-05-18T08:48:48.688Z,18.86
2019-05-18T08:51:17.392Z,19.22
2019-05-18T08:53:46.094Z,18.74
2019-05-18T08:56:14.832Z,19.06
2019-05-18T08:58:43.544Z,19.25
2019-05-18T09:01:12.239Z,18.61
2019-05-18T09:03:40.979Z,18.96
2019-05-18T09:06:09.691Z,18.47
2019-05-18T09:08:38.397Z,19.08
2019-05-18T09:11:07.153Z,19.12
2019-05-18T09:13:35.860Z,19.17
2019-05-18T09:16:04.549Z,19.23
2019-05-18T09:18:33.236Z,19.12
2019-05-18T09:21:02.792Z,18.89
2019-05-18T09:23:31.492Z,19.57
2019-05-18T09:26:00.250Z,19.89
2019-05-18T09:28:29.146Z,19.30
2019-05-18T09:30:57.844Z,19.53
2019-05-18T09:33:26.587Z,19.55
2019-05-18T09:35:55.293Z,19.68
2019-05-18T09:38:24.002Z,19.47
2019-05-18T09:40:52.681Z,19.21
2019-05-18T09:43:21.383Z,19.70
2019-05-18T09:45:50.021Z,19.89
2019-05-18T09:48:18.756Z,19.86
2019-05-18T09:50:47.468Z,19.64
2019-05-18T09:53:16.171Z,19.75
2019-05-18T09:55:44.914Z,20.19
2019-05-18T09:58:13.633Z,20.56
2019-05-18T10:00:42.257Z,20.94
2019-05-18T10:03:11.010Z,21.01
2019-05-18T10:05:39.713Z,20.71
2019-05-18T10:08:08.441Z,20.45
2019-05-18T10:10:37.163Z,20.70
2019-05-18T10:13:05.801Z,20.74
2019-05-18T10:15:34.528Z,20.93
2019-05-18T10:18:03.281Z,20.65
2019-05-18T10:20:31.985Z,20.93
2019-05-18T10:23:12.342Z,20.57
2019-05-18T10:25:32.046Z,20.35
2019-05-18T10:28:00.757Z,20.51
2019-05-18T10:30:29.461Z,20.89
2019-05-18T10:32:58.213Z,21.21
2019-05-18T10:35:26.914Z,21.02
2019-05-18T10:37:55.640Z,21.17
2019-05-18T10:40:24.376Z,21.23
2019-05-18T10:42:53.092Z,20.55
2019-05-18T10:45:21.895Z,20.92
2019-05-18T10:47:51.694Z,20.98
2019-05-18T10:50:20.350Z,21.38
2019-05-18T10:52:49.051Z,21.69
2019-05-18T10:55:17.990Z,21.80
2019-05-18T10:57:46.686Z,21.63
2019-05-18T11:00:16.184Z,21.59
2019-05-18T11:02:44.922Z,21.97
2019-05-18T11:05:15.296Z,21.53
2019-05-18T11:07:43.999Z,22.17
2019-05-18T11:10:13.236Z,21.68
2019-05-18T11:12:41.860Z,21.66
2019-05-18T11:15:11.770Z,22.25
2019-05-18T11:17:40.492Z,22.55
2019-05-18T11:20:13.497Z,21.67
2019-05-18T11:22:42.206Z,21.79
2019-05-18T11:25:11.790Z,22.13
2019-05-18T11:27:40.488Z,22.17
2019-05-18T11:30:10.458Z,22.28
2019-05-18T11:32:39.455Z,22.03
2019-05-18T11:35:09.189Z,22.07
2019-05-18T11:37:37.900Z,22.46
2019-05-18T11:40:08.061Z,22.21
2019-05-18T11:42:36.769Z,22.89
2019-05-18T11:45:08.786Z,22.63
2019-05-18T11:47:37.510Z,22.27
2019-05-18T11:50:08.330Z,22.66
2019-05-18T11:52:37.118Z,22.76
2019-05-18T11:55:08.243Z,22.89
2019-05-18T11:57:36.944Z,22.90
2019-05-18T12:00:09.512Z,22.87
2019-05-18T12:02:38.253Z,23.29
2019-05-18T12:05:08.687Z,23.17
2019-05-18T12:07:37.393Z,22.55
2019-05-18T12:10:10.879Z,22.89
2019-05-18T12:12:39.577Z,23.02
2019-05-18T12:15:31.926Z,23.51
2019-05-18T12:18:00.590Z,23.63
2019-05-18T12:20:29.316Z,23.89
2019-05-18T12:22:58.074Z,23.94
2019-05-18T12:25:26.769Z,23.95
2019-05-18T12:27:56.401Z,23.81
2019-05-18T12:30:25.911Z,23.23
2019-05-18T12:32:54.603Z,23.14
2019-05-18T12:35:23.311Z,23.43
2019-05-18T12:37:51.979Z,23.11
2019-05-18T12:40:21.778Z,23.19
2019-05-18T12:42:50.490Z,23.28
2019-05-18T12:45:19.646Z,23.86
2019-05-18T12:47:48.332Z,23.37
2019-05-18T12:50:18.128Z,23.89
2019-05-18T12:52:46.868Z,24.34
2019-05-18T12:55:17.462Z,24.21
2019-05-18T12:57:46.163Z,24.12
2019-05-18T13:00:16.398Z,23.59
2019-05-18T13:02:45.093Z,23.96
2019-05-18T13:05:15.191Z,23.44
2019-05-18T13:07:43.925Z,23.54
2019-05-18T13:10:13.512Z,24.18
2019-05-18T13:12:42.247Z,24.16
2019-05-18T13:15:12.440Z,24.19
2019-05-18T13:17:41.128Z,24.56
2019-05-18T13:20:12.004Z,23.80
2019-05-18T13:22:40.736Z,24.38
2019-05-18T13:25:09.863Z,25.05
2019-05-18T13:27:40.037Z,25.05
2019-05-18T13:30:13.746Z,24.65
2019-05-18T13:32:42.584Z,24.57
2019-05-18T13:35:13.186Z,24.26
2019-05-18T13:37:41.919Z,24.78
2019-05-18T13:40:11.019Z,23.98
2019-05-18T13:42:39.721Z,23.68
2019-05-18T13:45:09.958Z,23.51
2019-05-18T13:47:38.713Z,23.27
2019-05-18T13:50:08.039Z,23.73
2019-05-18T13:52:36.767Z,23.57
2019-05-18T13:55:06.293Z,23.69
2019-05-18T13:57:35.295Z,24.23
2019-05-18T14:00:06.332Z,24.57
2019-05-18T14:02:35.070Z,23.53
2019-05-18T14:05:03.778Z,22.93
2019-05-18T14:07:32.513Z,22.85
2019-05-18T14:10:01.204Z,23.55
2019-05-18T14:12:29.895Z,23.30
2019-05-18T14:14:58.625Z,23.37
2019-05-18T14:17:27.330Z,24.11
2019-05-18T14:19:56.020Z,23.39
2019-05-18T14:22:24.835Z,24.02
2019-05-18T14:24:53.532Z,24.31
2019-05-18T14:27:22.924Z,24.93
2019-05-18T14:29:51.656Z,25.05
2019-05-18T14:32:21.200Z,24.97
2019-05-18T14:34:49.889Z,25.25
2019-05-18T14:37:18.621Z,25.30
2019-05-18T14:39:47.321Z,25.03
2019-05-18T14:42:16.028Z,24.28
2019-05-18T14:44:44.750Z,24.63
2019-05-18T14:47:13.451Z,24.76
2019-05-18T14:49:42.146Z,24.41
2019-05-18T14:52:12.146Z,24.48
2019-05-18T14:54:41.112Z,24.48
2019-05-18T14:57:09.816Z,24.95
2019-05-18T14:59:38.546Z,24.75
2019-05-18T15:02:07.251Z,25.45
2019-05-18T15:04:35.948Z,23.93
2019-05-18T15:07:04.688Z,23.87
2019-05-18T15:09:33.383Z,24.12
2019-05-18T15:12:02.110Z,24.09
2019-05-18T15:14:30.774Z,24.48
2019-05-18T15:16:59.472Z,25.23
2019-05-18T15:19:28.176Z,25.07
2019-05-18T15:21:56.909Z,24.92
2019-05-18T15:24:25.601Z,24.64
2019-05-18T15:26:54.301Z,24.42
2019-05-18T15:29:23.058Z,24.41
2019-05-18T15:31:51.783Z,24.99
2019-05-18T15:34:21.371Z,25.26
2019-05-18T15:36:50.019Z,24.89
2019-05-18T15:39:18.716Z,24.63
2019-05-18T15:41:47.408Z,24.83
2019-05-18T15:44:16.141Z,25.16
2019-05-18T15:46:44.839Z,25.22
2019-05-18T15:49:13.552Z,25.21
2019-05-18T15:51:42.260Z,25.27
2019-05-18T15:54:10.961Z,25.21
2019-05-18T15:56:39.654Z,24.68
2019-05-18T15:59:08.389Z,24.80
2019-05-18T16:01:37.124Z,24.44
2019-05-18T16:04:06.668Z,24.64
2019-05-18T16:06:35.535Z,23.79
2019-05-18T16:09:05.564Z,24.45
2019-05-18T16:11:34.259Z,24.67
2019-05-18T16:14:02.993Z,24.67
2019-05-18T16:16:31.694Z,24.72
2019-05-18T16:19:00.389Z,24.57
2019-05-18T16:21:29.121Z,24.66
2019-05-18T16:23:57.831Z,24.59
2019-05-18T16:26:28.109Z,24.12
2019-05-18T16:28:56.902Z,24.26
2019-05-18T16:31:25.602Z,24.29
2019-05-18T16:33:54.317Z,24.24
2019-05-18T16:36:23.834Z,24.29
2019-05-18T16:38:52.706Z,24.20
2019-05-18T16:41:21.398Z,24.30
2019-05-18T16:43:50.139Z,24.21
2019-05-18T16:46:18.846Z,24.18
2019-05-18T16:48:47.566Z,24.19
2019-05-18T16:51:16.295Z,24.06
2019-05-18T16:53:49.420Z,23.64
2019-05-18T16:56:15.409Z,23.72
2019-05-18T16:58:44.183Z,23.79
2019-05-18T17:01:12.869Z,23.79
2019-05-18T17:03:41.576Z,23.82
2019-05-18T17:06:10.617Z,23.80
2019-05-18T17:08:39.310Z,23.59
2019-05-18T17:11:08.017Z,23.54
2019-05-18T17:13:36.762Z,23.45
2019-05-18T17:16:05.459Z,23.38
2019-05-18T17:18:34.151Z,23.33
2019-05-18T17:21:02.889Z,23.19
2019-05-18T17:23:31.514Z,23.07
2019-05-18T17:26:00.206Z,22.99
2019-05-18T17:28:28.952Z,22.91
2019-05-18T17:30:57.649Z,22.63
2019-05-18T17:33:28.781Z,22.67
2019-05-18T17:36:00.485Z,22.74
2019-05-18T17:38:28.913Z,22.59
2019-05-18T17:40:57.530Z,22.47
2019-05-18T17:43:26.279Z,22.41
2019-05-18T17:45:55.001Z,22.18
2019-05-18T17:48:23.705Z,21.93
2019-05-18T17:50:52.439Z,21.91
2019-05-18T17:53:21.140Z,21.80
2019-05-18T17:55:49.854Z,21.76
2019-05-18T17:58:18.587Z,21.50
2019-05-18T18:00:47.271Z,21.47
2019-05-18T18:03:15.974Z,21.45
2019-05-18T18:05:44.698Z,21.40
2019-05-18T18:08:13.392Z,21.18
2019-05-18T18:10:42.108Z,21.22
2019-05-18T18:13:10.838Z,21.16
2019-05-18T18:15:39.539Z,20.61
2019-05-18T18:18:08.261Z,20.85
2019-05-18T18:20:36.929Z,20.28
2019-05-18T18:23:05.619Z,19.97
2019-05-18T18:25:34.520Z,20.04
2019-05-18T18:28:03.251Z,20.70
2019-05-18T18:30:31.950Z,21.12
2019-05-18T18:33:00.642Z,21.55
2019-05-18T18:35:29.373Z,21.60
2019-05-18T18:37:58.077Z,21.39
2019-05-18T18:40:27.782Z,21.69
2019-05-18T18:42:56.518Z,21.35
2019-05-18T18:45:25.215Z,21.72
2019-05-18T18:47:53.906Z,21.78
2019-05-18T18:50:22.641Z,21.58
2019-05-18T18:52:51.350Z,21.86
2019-05-18T18:55:20.227Z,21.72
2019-05-18T18:57:48.955Z,21.44
2019-05-18T19:00:18.619Z,21.83
2019-05-18T19:02:47.322Z,22.03
2019-05-18T19:05:16.152Z,22.05
2019-05-18T19:07:44.893Z,21.80
2019-05-18T19:10:13.668Z,22.05
2019-05-18T19:12:42.420Z,22.07
2019-05-18T19:15:11.613Z,21.88
2019-05-18T19:17:40.232Z,21.83
2019-05-18T19:20:09.266Z,21.56
2019-05-18T19:22:37.901Z,22.02
2019-05-18T19:25:06.800Z,21.61
2019-05-18T19:27:35.560Z,21.23
2019-05-18T19:30:09.873Z,21.08
2019-05-18T19:32:38.668Z,20.63
2019-05-18T19:35:08.706Z,20.85
2019-05-18T19:37:37.336Z,21.31
2019-05-18T19:40:07.427Z,21.20
2019-05-18T19:42:37.001Z,21.26
2019-05-18T19:45:09.454Z,21.35
2019-05-18T19:47:38.131Z,21.66
2019-05-18T19:50:10.265Z,21.51
2019-05-18T19:52:38.974Z,21.49
2019-05-18T19:55:07.868Z,21.63
2019-05-18T19:57:36.606Z,21.26
2019-05-18T20:00:08.180Z,21.31
2019-05-18T20:02:36.890Z,21.20
2019-05-18T20:05:09.194Z,20.73
2019-05-18T20:07:38.198Z,21.28
2019-05-18T20:10:08.769Z,21.60
2019-05-18T20:12:37.506Z,21.33
2019-05-18T20:15:09.369Z,21.18
2019-05-18T20:17:36.920Z,21.17
2019-05-18T20:20:07.444Z,21.14
2019-05-18T20:22:36.074Z,21.05
2019-05-18T20:25:05.367Z,20.00
2019-05-18T20:27:34.102Z,20.14
2019-05-18T20:30:02.803Z,20.59
2019-05-18T20:32:31.502Z,20.80
2019-05-18T20:35:00.241Z,20.68
2019-05-18T20:37:28.936Z,20.51
2019-05-18T20:39:57.643Z,20.60
2019-05-18T20:42:26.364Z,20.63
2019-05-18T20:44:55.911Z,20.58
2019-05-18T20:47:24.625Z,20.61
2019-05-18T20:49:53.347Z,20.54
2019-05-18T20:52:22.047Z,20.39
2019-05-18T20:54:50.749Z,20.42
2019-05-18T20:57:19.481Z,19.99
2019-05-18T20:59:48.178Z,19.98
2019-05-18T21:02:16.869Z,20.17
2019-05-18T21:04:45.597Z,20.22
2019-05-18T21:07:14.292Z,20.04
2019-05-18T21:09:43.016Z,20.46
2019-05-18T21:12:11.728Z,20.05
2019-05-18T21:14:40.429Z,20.04
2019-05-18T21:17:09.052Z,20.05
2019-05-18T21:19:37.787Z,20.07
2019-05-18T21:22:06.444Z,19.99
2019-05-18T21:24:35.043Z,20.01
2019-05-18T21:27:03.983Z,19.85
2019-05-18T21:29:32.676Z,19.70
2019-05-18T21:32:01.368Z,19.24
2019-05-18T21:34:30.098Z,19.25
2019-05-18T21:36:58.794Z,19.33
2019-05-18T21:39:27.487Z,18.95
2019-05-18T21:41:56.228Z,19.41
2019-05-18T21:44:24.928Z,19.55
2019-05-18T21:46:54.486Z,19.60
2019-05-18T21:49:23.199Z,19.85
2019-05-18T21:51:51.911Z,19.86
2019-05-18T21:54:20.694Z,19.76
2019-05-18T21:56:49.365Z,19.90
2019-05-18T21:59:17.999Z,19.88
2019-05-18T22:01:46.693Z,19.81
2019-05-18T22:04:15.422Z,19.72
2019-05-18T22:06:44.123Z,19.63
2019-05-18T22:09:12.925Z,19.80
2019-05-18T22:11:41.686Z,19.59
2019-05-18T22:14:10.461Z,19.77
2019-05-18T22:16:39.151Z,19.91
2019-05-18T22:19:07.883Z,19.89
2019-05-18T22:21:36.567Z,19.15
2019-05-18T22:24:05.263Z,19.44
2019-05-18T22:26:33.920Z,19.83
2019-05-18T22:29:02.731Z,19.69
2019-05-18T22:31:31.410Z,19.53
2019-05-18T22:34:00.134Z,19.67
2019-05-18T22:36:28.876Z,19.68
2019-05-18T22:38:57.554Z,19.69
2019-05-18T22:41:28.330Z,19.72
2019-05-18T22:43:57.022Z,19.61
2019-05-18T22:46:25.717Z,19.60
2019-05-18T22:48:55.305Z,19.68
2019-05-18T22:51:23.988Z,19.60
2019-05-18T22:53:52.680Z,19.62
2019-05-18T22:56:21.547Z,19.58
2019-05-18T22:58:50.321Z,19.56
2019-05-18T23:01:19.014Z,19.46
2019-05-18T23:03:47.745Z,19.32
2019-05-18T23:06:16.445Z,19.23
2019-05-18T23:08:45.143Z,19.24
2019-05-18T23:11:13.905Z,19.07
2019-05-18T23:13:42.529Z,19.21
2019-05-18T23:16:11.229Z,18.58
2019-05-18T23:18:39.959Z,18.58
2019-05-18T23:21:08.767Z,18.76
2019-05-18T23:23:37.459Z,18.93
2019-05-18T23:26:06.114Z,18.79
2019-05-18T23:28:34.819Z,18.92
2019-05-18T23:31:03.520Z,18.76
2019-05-18T23:33:32.247Z,18.84
2019-05-18T23:36:00.949Z,18.81
2019-05-18T23:38:29.687Z,18.88
2019-05-18T23:40:58.449Z,18.91
2019-05-18T23:43:27.081Z,18.95
2019-05-18T23:45:56.069Z,18.84
2019-05-18T23:48:24.800Z,18.93
2019-05-18T23:50:54.362Z,18.86
2019-05-18T23:53:23.030Z,18.89
2019-05-18T23:55:51.760Z,18.88
2019-05-18T23:58:20.458Z,18.99
